createdAt,value
2017-11-25T00:01:30.922Z,22.40
2017-11-25T00:03:58.505Z,27.98
2017-11-25T00:06:26.098Z,33.83
2017-11-25T00:08:53.670Z,27.48
2017-11-25T00:11:21.272Z,25.63
2017-11-25T00:13:48.837Z,25.05
2017-11-25T00:16:16.453Z,26.80
2017-11-25T00:18:45.741Z,26.17
2017-11-25T00:21:13.338Z,32.67
2017-11-25T00:23:41.697Z,35.50
2017-11-25T00:26:09.269Z,36.27
2017-11-25T00:28:37.644Z,35.70
2017-11-25T00:31:05.218Z,34.80
2017-11-25T00:33:33.582Z,32.27
2017-11-25T00:36:01.153Z,38.17
2017-11-25T00:38:29.511Z,25.85
2017-11-25T00:40:58.594Z,23.23
2017-11-25T00:43:26.184Z,23.87
2017-11-25T00:45:53.749Z,20.77
2017-11-25T00:48:22.101Z,19.90
2017-11-25T00:50:49.685Z,20.58
2017-11-25T00:53:17.336Z,22.73
2017-11-25T00:55:46.649Z,20.07
2017-11-25T00:58:14.489Z,23.30
2017-11-25T01:00:43.797Z,21.97
2017-11-25T01:03:11.365Z,24.07
2017-11-25T01:05:38.957Z,21.20
2017-11-25T01:08:07.289Z,22.90
2017-11-25T01:10:34.882Z,24.33
2017-11-25T01:13:03.225Z,26.90
2017-11-25T01:15:30.825Z,22.77
2017-11-25T01:17:58.478Z,24.80
2017-11-25T01:20:26.241Z,24.53
2017-11-25T01:22:53.820Z,27.13
2017-11-25T01:25:22.161Z,23.73
2017-11-25T01:27:49.753Z,24.05
2017-11-25T01:30:18.090Z,20.57
2017-11-25T01:32:46.693Z,17.67
2017-11-25T01:35:14.265Z,21.20
2017-11-25T01:37:41.857Z,15.70
2017-11-25T01:40:09.434Z,14.50
2017-11-25T01:42:37.029Z,14.60
2017-11-25T01:45:04.601Z,14.90
2017-11-25T01:47:32.190Z,17.10
2017-11-25T01:50:00.524Z,14.67
2017-11-25T01:52:28.112Z,14.43
2017-11-25T01:54:56.451Z,15.73
2017-11-25T01:57:24.253Z,15.67
2017-11-25T01:59:52.598Z,16.00
2017-11-25T02:02:20.165Z,14.60
2017-11-25T02:04:47.757Z,15.43
2017-11-25T02:07:16.095Z,16.33
2017-11-25T02:09:44.832Z,14.32
2017-11-25T02:12:13.175Z,14.60
2017-11-25T02:14:41.126Z,13.10
2017-11-25T02:17:08.725Z,16.62
2017-11-25T02:19:36.318Z,14.63
2017-11-25T02:22:03.906Z,14.38
2017-11-25T02:24:31.518Z,15.10
2017-11-25T02:26:59.890Z,12.82
2017-11-25T02:29:27.548Z,16.47
2017-11-25T02:31:55.127Z,15.52
2017-11-25T02:34:23.829Z,17.57
2017-11-25T02:36:51.406Z,14.52
2017-11-25T02:39:18.969Z,12.37
2017-11-25T02:41:46.590Z,14.67
2017-11-25T02:44:14.933Z,14.67
2017-11-25T02:46:44.669Z,14.07
2017-11-25T02:49:13.749Z,15.90
2017-11-25T02:51:41.340Z,15.10
2017-11-25T02:54:08.906Z,13.37
2017-11-25T02:56:37.260Z,16.40
2017-11-25T02:59:04.933Z,16.80
2017-11-25T03:01:32.529Z,18.13
2017-11-25T03:04:00.097Z,19.03
2017-11-25T03:06:27.689Z,20.03
2017-11-25T03:08:55.274Z,23.30
2017-11-25T03:11:22.868Z,26.90
2017-11-25T03:13:50.441Z,21.02
2017-11-25T03:16:18.205Z,19.17
2017-11-25T03:18:45.773Z,17.37
2017-11-25T03:21:13.341Z,18.77
2017-11-25T03:23:40.936Z,17.53
2017-11-25T03:26:08.500Z,17.10
2017-11-25T03:28:36.093Z,14.87
2017-11-25T03:31:04.427Z,15.38
2017-11-25T03:33:32.027Z,13.43
2017-11-25T03:36:00.363Z,10.98
2017-11-25T03:38:28.044Z,8.13
2017-11-25T03:40:55.615Z,8.93
2017-11-25T03:43:23.994Z,7.77
2017-11-25T03:45:51.560Z,6.72
2017-11-25T03:48:19.902Z,7.23
2017-11-25T03:50:47.497Z,7.10
2017-11-25T03:53:15.056Z,4.95
2017-11-25T03:55:43.125Z,5.50
2017-11-25T03:58:10.689Z,7.30
2017-11-25T04:00:38.313Z,7.90
2017-11-25T04:03:05.909Z,6.63
2017-11-25T04:05:33.482Z,5.87
2017-11-25T04:08:01.849Z,7.33
2017-11-25T04:10:29.413Z,7.33
2017-11-25T04:12:57.007Z,7.75
2017-11-25T04:15:24.568Z,8.53
2017-11-25T04:17:52.157Z,8.40
2017-11-25T04:20:19.726Z,7.87
2017-11-25T04:22:47.313Z,6.37
2017-11-25T04:25:14.873Z,7.40
2017-11-25T04:27:44.175Z,5.73
2017-11-25T04:30:11.740Z,6.53
2017-11-25T04:32:39.300Z,6.60
2017-11-25T04:35:06.917Z,8.90
2017-11-25T04:37:34.482Z,8.03
2017-11-25T04:40:02.045Z,7.53
2017-11-25T04:42:29.634Z,8.83
2017-11-25T04:44:57.198Z,8.80
2017-11-25T04:47:24.857Z,5.70
2017-11-25T04:49:52.425Z,6.17
2017-11-25T04:52:21.082Z,5.57
2017-11-25T04:54:48.670Z,5.33
2017-11-25T04:57:17.038Z,5.13
2017-11-25T04:59:46.717Z,5.18
2017-11-25T05:02:14.305Z,6.17
2017-11-25T05:04:42.786Z,3.70
2017-11-25T05:07:10.368Z,4.90
2017-11-25T05:09:37.928Z,3.30
2017-11-25T05:12:06.306Z,3.10
2017-11-25T05:14:34.689Z,4.70
2017-11-25T05:17:03.029Z,2.92
2017-11-25T05:19:30.616Z,4.50
2017-11-25T05:21:58.173Z,4.17
2017-11-25T05:24:25.756Z,4.60
2017-11-25T05:26:54.093Z,4.80
2017-11-25T05:29:21.682Z,4.50
2017-11-25T05:31:49.246Z,4.50
2017-11-25T05:34:17.601Z,4.30
2017-11-25T05:36:46.678Z,5.35
2017-11-25T05:39:14.265Z,5.10
2017-11-25T05:41:41.829Z,4.90
2017-11-25T05:44:09.417Z,5.13
2017-11-25T05:46:37.753Z,5.10
2017-11-25T05:49:05.340Z,5.97
2017-11-25T05:51:33.670Z,6.50
2017-11-25T05:54:01.260Z,9.20
2017-11-25T05:56:29.618Z,6.77
2017-11-25T05:58:57.215Z,7.73
2017-11-25T06:01:24.777Z,7.83
2017-11-25T06:03:52.373Z,7.90
2017-11-25T06:06:19.940Z,7.10
2017-11-25T06:08:47.524Z,8.80
2017-11-25T06:11:15.118Z,7.87
2017-11-25T06:13:43.101Z,6.33
2017-11-25T06:16:10.669Z,7.13
2017-11-25T06:18:39.016Z,7.87
2017-11-25T06:21:06.581Z,7.23
2017-11-25T06:23:34.257Z,7.93
2017-11-25T06:26:01.825Z,8.60
2017-11-25T06:28:30.177Z,7.70
2017-11-25T06:30:57.750Z,8.57
2017-11-25T06:33:25.491Z,7.77
2017-11-25T06:35:53.056Z,8.35
2017-11-25T06:38:20.622Z,8.00
2017-11-25T06:40:48.217Z,7.30
2017-11-25T06:43:16.544Z,9.27
2017-11-25T06:45:44.965Z,8.50
2017-11-25T06:48:13.301Z,8.63
2017-11-25T06:50:40.893Z,9.25
2017-11-25T06:53:08.457Z,7.97
2017-11-25T06:55:36.044Z,8.67
2017-11-25T06:58:04.376Z,9.10
2017-11-25T07:00:31.965Z,10.20
2017-11-25T07:03:00.297Z,12.77
2017-11-25T07:05:28.309Z,10.10
2017-11-25T07:07:57.779Z,9.43
2017-11-25T07:10:25.680Z,25.53
2017-11-25T07:12:53.278Z,47.63
2017-11-25T07:15:20.844Z,15.97
2017-11-25T07:17:48.437Z,15.63
2017-11-25T07:20:16.102Z,17.80
2017-11-25T07:22:45.637Z,16.50
2017-11-25T07:25:14.710Z,28.60
2017-11-25T07:27:43.229Z,32.37
2017-11-25T07:30:11.569Z,12.93
2017-11-25T07:32:39.133Z,16.20
2017-11-25T07:35:06.730Z,18.47
2017-11-25T07:37:35.093Z,18.07
2017-11-25T07:40:04.209Z,16.12
2017-11-25T07:42:33.162Z,17.67
2017-11-25T07:45:00.733Z,17.85
2017-11-25T07:47:28.595Z,14.90
2017-11-25T07:49:56.192Z,15.63
2017-11-25T07:52:24.520Z,13.10
2017-11-25T07:54:52.141Z,13.83
2017-11-25T07:57:19.785Z,12.13
2017-11-25T07:59:48.150Z,13.03
2017-11-25T08:02:15.717Z,13.20
2017-11-25T08:04:44.229Z,11.93
2017-11-25T08:07:11.835Z,12.33
2017-11-25T08:09:39.441Z,11.90
2017-11-25T08:12:07.780Z,13.10
2017-11-25T08:14:35.360Z,13.70
2017-11-25T08:17:02.957Z,12.00
2017-11-25T08:19:30.529Z,13.00
2017-11-25T08:21:58.131Z,12.32
2017-11-25T08:24:26.513Z,12.13
2017-11-25T08:26:54.109Z,11.18
2017-11-25T08:29:22.446Z,11.50
2017-11-25T08:31:50.037Z,10.38
2017-11-25T08:34:18.364Z,10.00
2017-11-25T08:36:45.958Z,9.53
2017-11-25T08:39:13.528Z,10.73
2017-11-25T08:41:41.889Z,8.90
2017-11-25T08:44:09.480Z,8.43
2017-11-25T08:46:37.813Z,9.33
2017-11-25T08:49:05.401Z,8.20
2017-11-25T08:51:33.792Z,8.53
2017-11-25T08:54:02.153Z,6.95
2017-11-25T08:56:29.717Z,6.25
2017-11-25T08:58:57.597Z,5.47
2017-11-25T09:01:25.933Z,6.37
2017-11-25T09:03:53.501Z,6.72
2017-11-25T09:06:21.184Z,5.97
2017-11-25T09:08:48.751Z,6.17
2017-11-25T09:11:16.342Z,5.50
2017-11-25T09:13:45.721Z,5.35
2017-11-25T09:16:13.305Z,5.70
2017-11-25T09:18:40.865Z,6.00
2017-11-25T09:21:09.244Z,6.03
2017-11-25T09:23:37.577Z,5.77
2017-11-25T09:26:05.138Z,5.13
2017-11-25T09:28:32.733Z,5.20
2017-11-25T09:31:01.066Z,4.10
2017-11-25T09:33:28.653Z,3.87
2017-11-25T09:35:57.337Z,3.70
2017-11-25T09:38:26.428Z,4.00
2017-11-25T09:40:54.006Z,2.60
2017-11-25T09:43:22.401Z,2.53
2017-11-25T09:45:50.729Z,2.13
2017-11-25T09:48:18.294Z,2.73
2017-11-25T09:50:46.083Z,1.87
2017-11-25T09:53:13.650Z,2.67
2017-11-25T09:55:41.229Z,2.83
2017-11-25T09:58:09.555Z,3.50
2017-11-25T10:00:37.140Z,3.60
2017-11-25T10:03:04.705Z,2.85
2017-11-25T10:05:32.288Z,2.30
2017-11-25T10:08:00.622Z,3.00
2017-11-25T10:10:28.205Z,9.67
2017-11-25T10:12:55.778Z,4.47
2017-11-25T10:15:24.139Z,5.30
2017-11-25T10:17:51.706Z,4.07
2017-11-25T10:20:20.798Z,5.50
2017-11-25T10:22:48.357Z,4.50
2017-11-25T10:25:15.941Z,3.83
2017-11-25T10:27:45.817Z,2.92
2017-11-25T10:30:14.177Z,2.40
2017-11-25T10:32:41.762Z,2.00
2017-11-25T10:35:09.324Z,1.93
2017-11-25T10:37:36.918Z,3.13
2017-11-25T10:40:05.245Z,2.20
2017-11-25T10:42:32.830Z,2.17
2017-11-25T10:45:00.397Z,2.20
2017-11-25T10:47:29.486Z,2.40
2017-11-25T10:49:58.558Z,2.30
2017-11-25T10:52:26.140Z,2.57
2017-11-25T10:54:53.705Z,3.63
2017-11-25T10:57:21.369Z,2.50
2017-11-25T10:59:48.954Z,1.92
2017-11-25T11:02:17.307Z,2.47
2017-11-25T11:04:45.901Z,3.47
2017-11-25T11:07:14.249Z,2.83
2017-11-25T11:09:41.821Z,6.47
2017-11-25T11:12:09.413Z,2.90
2017-11-25T11:14:37.742Z,2.60
2017-11-25T11:17:05.330Z,2.80
2017-11-25T11:19:32.889Z,2.13
2017-11-25T11:22:01.977Z,1.97
2017-11-25T11:24:29.563Z,1.40
2017-11-25T11:26:57.917Z,1.45
2017-11-25T11:29:25.477Z,1.40
2017-11-25T11:31:53.058Z,1.37
2017-11-25T11:34:21.381Z,1.10
2017-11-25T11:36:48.966Z,0.80
2017-11-25T11:39:16.529Z,1.00
2017-11-25T11:41:44.965Z,0.90
2017-11-25T11:44:13.288Z,1.00
2017-11-25T11:46:40.873Z,0.80
2017-11-25T11:49:08.433Z,0.90
2017-11-25T11:51:36.080Z,1.00
2017-11-25T11:54:03.671Z,1.40
2017-11-25T11:56:32.043Z,1.33
2017-11-25T11:58:59.629Z,1.03
2017-11-25T12:01:27.446Z,1.03
2017-11-25T12:03:55.829Z,1.02
2017-11-25T12:06:23.636Z,0.80
2017-11-25T12:08:51.985Z,0.70
2017-11-25T12:11:19.549Z,0.50
2017-11-25T12:13:47.134Z,0.80
2017-11-25T12:16:15.466Z,0.60
2017-11-25T12:18:43.878Z,0.80
2017-11-25T12:21:12.214Z,0.70
2017-11-25T12:23:39.802Z,6.35
2017-11-25T12:26:07.361Z,1.70
2017-11-25T12:28:34.941Z,0.90
2017-11-25T12:31:03.279Z,1.08
2017-11-25T12:33:30.862Z,1.23
2017-11-25T12:35:58.432Z,1.97
2017-11-25T12:38:26.021Z,2.70
2017-11-25T12:40:53.596Z,4.07
2017-11-25T12:43:21.217Z,1.70
2017-11-25T12:45:48.885Z,2.40
2017-11-25T12:48:17.332Z,2.67
2017-11-25T12:50:45.817Z,1.00
2017-11-25T12:53:13.382Z,1.07
2017-11-25T12:55:40.969Z,0.90
2017-11-25T12:58:08.520Z,0.80
2017-11-25T13:00:36.103Z,0.80
2017-11-25T13:03:04.793Z,1.27
2017-11-25T13:05:32.386Z,1.40
2017-11-25T13:07:59.973Z,1.85
2017-11-25T13:10:27.615Z,1.40
2017-11-25T13:12:55.240Z,1.30
2017-11-25T13:15:22.830Z,1.00
2017-11-25T13:17:50.398Z,0.95
2017-11-25T13:20:17.986Z,1.07
2017-11-25T13:22:45.756Z,0.97
2017-11-25T13:25:13.530Z,1.00
2017-11-25T13:27:41.101Z,1.00
2017-11-25T13:30:09.453Z,0.80
2017-11-25T13:32:37.017Z,1.00
2017-11-25T13:35:04.610Z,1.23
2017-11-25T13:37:32.937Z,1.10
2017-11-25T13:40:00.527Z,9.40
2017-11-25T13:42:28.092Z,3.30
2017-11-25T13:44:55.741Z,1.60
2017-11-25T13:47:23.300Z,1.00
2017-11-25T13:49:50.880Z,1.00
2017-11-25T13:52:18.449Z,0.87
2017-11-25T13:54:46.796Z,0.90
2017-11-25T13:57:14.354Z,0.90
2017-11-25T13:59:41.952Z,0.90
2017-11-25T14:02:10.285Z,0.60
2017-11-25T14:04:38.157Z,1.00
2017-11-25T14:07:05.752Z,0.80
2017-11-25T14:09:34.088Z,0.80
2017-11-25T14:12:01.681Z,1.63
2017-11-25T14:14:29.256Z,0.77
2017-11-25T14:16:57.601Z,0.77
2017-11-25T14:19:25.160Z,0.80
2017-11-25T14:21:52.803Z,0.60
2017-11-25T14:24:20.361Z,0.60
2017-11-25T14:26:47.940Z,0.60
2017-11-25T14:29:15.501Z,0.57
2017-11-25T14:31:43.902Z,0.60
2017-11-25T14:34:11.460Z,0.80
2017-11-25T14:36:39.113Z,1.10
2017-11-25T14:39:06.673Z,0.93
2017-11-25T14:41:34.253Z,0.70
2017-11-25T14:44:01.822Z,0.80
2017-11-25T14:46:30.189Z,0.80
2017-11-25T14:48:57.762Z,0.70
2017-11-25T14:51:26.109Z,0.60
2017-11-25T14:53:53.674Z,0.82
2017-11-25T14:56:21.261Z,1.47
2017-11-25T14:58:49.589Z,0.70
2017-11-25T15:01:17.173Z,0.60
2017-11-25T15:03:45.841Z,0.70
2017-11-25T15:06:13.426Z,0.60
2017-11-25T15:08:40.990Z,0.70
2017-11-25T15:11:12.824Z,0.60
2017-11-25T15:13:40.409Z,0.50
2017-11-25T15:16:07.970Z,0.70
2017-11-25T15:18:36.317Z,0.50
2017-11-25T15:21:03.877Z,0.70
2017-11-25T15:23:31.458Z,0.60
2017-11-25T15:25:59.030Z,0.63
2017-11-25T15:28:26.617Z,0.80
2017-11-25T15:30:54.957Z,0.52
2017-11-25T15:33:22.553Z,0.57
2017-11-25T15:35:50.890Z,0.60
2017-11-25T15:38:18.477Z,0.60
2017-11-25T15:40:46.061Z,0.80
2017-11-25T15:43:14.390Z,0.80
2017-11-25T15:45:41.974Z,1.20
2017-11-25T15:48:09.550Z,2.27
2017-11-25T15:50:37.900Z,2.13
2017-11-25T15:53:05.501Z,3.20
2017-11-25T15:55:33.869Z,5.50
2017-11-25T15:58:02.209Z,13.10
2017-11-25T16:00:29.805Z,11.30
2017-11-25T16:02:57.401Z,14.30
2017-11-25T16:05:24.989Z,11.60
2017-11-25T16:07:52.585Z,15.98
2017-11-25T16:10:20.158Z,11.03
2017-11-25T16:12:48.509Z,5.80
2017-11-25T16:15:16.073Z,3.10
2017-11-25T16:17:44.972Z,9.57
2017-11-25T16:20:12.545Z,5.78
2017-11-25T16:22:40.926Z,10.20
2017-11-25T16:25:09.266Z,9.50
2017-11-25T16:27:36.841Z,16.35
2017-11-25T16:30:04.517Z,15.67
2017-11-25T16:32:32.854Z,17.20
2017-11-25T16:35:00.463Z,20.30
2017-11-25T16:37:28.038Z,18.83
2017-11-25T16:39:56.686Z,6.80
2017-11-25T16:42:24.249Z,9.70
2017-11-25T16:44:51.809Z,6.37
2017-11-25T16:47:19.397Z,8.30
2017-11-25T16:49:47.749Z,9.37
2017-11-25T16:52:15.317Z,5.10
2017-11-25T16:54:45.017Z,7.22
2017-11-25T16:57:12.606Z,6.20
2017-11-25T16:59:40.946Z,4.50
2017-11-25T17:02:08.536Z,8.57
2017-11-25T17:04:36.125Z,7.63
2017-11-25T17:07:03.702Z,5.37
2017-11-25T17:09:31.289Z,4.10
2017-11-25T17:11:58.861Z,5.07
2017-11-25T17:14:26.445Z,5.60
2017-11-25T17:16:54.037Z,10.27
2017-11-25T17:19:21.601Z,8.70
2017-11-25T17:21:49.429Z,13.57
2017-11-25T17:24:17.002Z,12.10
2017-11-25T17:26:45.868Z,8.80
2017-11-25T17:29:13.461Z,17.80
2017-11-25T17:31:41.806Z,15.15
2017-11-25T17:34:09.384Z,6.10
2017-11-25T17:36:36.949Z,6.60
2017-11-25T17:39:05.297Z,8.77
2017-11-25T17:41:32.900Z,11.07
2017-11-25T17:44:01.358Z,6.53
2017-11-25T17:46:29.710Z,7.83
2017-11-25T17:48:57.299Z,6.75
2017-11-25T17:51:25.659Z,8.03
2017-11-25T17:53:53.241Z,10.13
2017-11-25T17:56:20.805Z,9.23
2017-11-25T17:58:48.397Z,12.13
2017-11-25T18:01:15.969Z,17.37
2017-11-25T18:03:45.734Z,14.70
2017-11-25T18:06:14.702Z,16.70
2017-11-25T18:08:44.700Z,19.65
2017-11-25T18:11:12.371Z,30.40
2017-11-25T18:13:40.077Z,23.53
2017-11-25T18:16:08.422Z,28.07
2017-11-25T18:18:35.998Z,30.17
2017-11-25T18:21:03.677Z,26.80
2017-11-25T18:23:31.605Z,23.80
2017-11-25T18:25:59.282Z,31.47
2017-11-25T18:28:26.861Z,31.17
2017-11-25T18:30:54.462Z,31.17
2017-11-25T18:33:22.093Z,26.77
2017-11-25T18:35:50.041Z,29.20
2017-11-25T18:38:17.610Z,27.77
2017-11-25T18:40:46.619Z,13.37
2017-11-25T18:43:14.192Z,17.10
2017-11-25T18:45:43.502Z,23.35
2017-11-25T18:48:11.836Z,34.20
2017-11-25T18:50:39.429Z,22.83
2017-11-25T18:53:07.765Z,28.27
2017-11-25T18:55:35.362Z,34.30
2017-11-25T18:58:02.933Z,18.37
2017-11-25T19:00:31.289Z,28.47
2017-11-25T19:02:59.675Z,13.13
2017-11-25T19:05:27.266Z,15.63
2017-11-25T19:07:55.605Z,25.42
2017-11-25T19:10:23.198Z,32.00
2017-11-25T19:12:51.553Z,34.40
2017-11-25T19:15:19.236Z,17.57
2017-11-25T19:17:47.569Z,11.03
2017-11-25T19:20:15.223Z,33.10
2017-11-25T19:22:43.741Z,17.50
2017-11-25T19:25:11.364Z,30.20
2017-11-25T19:27:38.944Z,43.50
2017-11-25T19:30:06.564Z,36.70
2017-11-25T19:32:34.269Z,35.30
2017-11-25T19:35:01.858Z,41.50
2017-11-25T19:37:30.229Z,42.40
2017-11-25T19:39:57.813Z,25.27
2017-11-25T19:42:26.173Z,34.37
2017-11-25T19:44:53.792Z,29.37
2017-11-25T19:47:21.386Z,37.00
2017-11-25T19:49:49.001Z,30.42
2017-11-25T19:52:16.606Z,39.80
2017-11-25T19:54:46.744Z,30.58
2017-11-25T19:57:14.334Z,15.90
2017-11-25T19:59:41.993Z,16.77
2017-11-25T20:02:09.582Z,13.27
2017-11-25T20:04:37.151Z,16.23
2017-11-25T20:07:04.750Z,19.40
2017-11-25T20:09:33.093Z,14.27
2017-11-25T20:12:01.587Z,32.13
2017-11-25T20:14:29.156Z,31.63
2017-11-25T20:16:56.753Z,32.13
2017-11-25T20:19:25.396Z,28.17
2017-11-25T20:21:52.992Z,38.22
2017-11-25T20:24:21.324Z,45.40
2017-11-25T20:26:48.912Z,46.97
2017-11-25T20:29:16.581Z,40.43
2017-11-25T20:31:46.748Z,38.92
2017-11-25T20:34:14.331Z,41.87
2017-11-25T20:36:42.849Z,26.93
2017-11-25T20:39:10.573Z,48.20
2017-11-25T20:41:38.316Z,51.27
2017-11-25T20:44:05.897Z,41.05
2017-11-25T20:46:33.488Z,35.57
2017-11-25T20:49:01.057Z,35.25
2017-11-25T20:51:29.423Z,30.97
2017-11-25T20:53:57.056Z,26.50
2017-11-25T20:56:24.622Z,20.77
2017-11-25T20:58:52.263Z,12.27
2017-11-25T21:01:19.834Z,13.80
2017-11-25T21:03:47.445Z,14.90
2017-11-25T21:06:15.062Z,13.60
2017-11-25T21:08:44.682Z,11.40
2017-11-25T21:11:12.315Z,14.00
2017-11-25T21:13:39.885Z,14.27
2017-11-25T21:16:07.483Z,15.83
2017-11-25T21:18:35.050Z,27.57
2017-11-25T21:21:02.671Z,28.85
2017-11-25T21:23:30.241Z,18.80
2017-11-25T21:25:57.840Z,15.15
2017-11-25T21:28:25.451Z,14.07
2017-11-25T21:30:53.084Z,16.40
2017-11-25T21:33:20.707Z,16.70
2017-11-25T21:35:48.297Z,14.73
2017-11-25T21:38:16.628Z,14.17
2017-11-25T21:40:46.570Z,16.90
2017-11-25T21:43:14.141Z,14.48
2017-11-25T21:45:41.779Z,15.90
2017-11-25T21:48:10.470Z,14.33
2017-11-25T21:50:38.332Z,15.03
2017-11-25T21:53:05.949Z,16.97
2017-11-25T21:55:33.522Z,14.93
2017-11-25T21:58:01.199Z,13.23
2017-11-25T22:00:28.783Z,19.47
2017-11-25T22:02:56.396Z,20.73
2017-11-25T22:05:23.965Z,19.37
2017-11-25T22:07:51.558Z,16.40
2017-11-25T22:10:19.434Z,16.77
2017-11-25T22:12:47.007Z,15.83
2017-11-25T22:15:14.596Z,17.10
2017-11-25T22:17:44.689Z,19.33
2017-11-25T22:20:12.257Z,15.60
2017-11-25T22:22:40.225Z,13.60
2017-11-25T22:25:07.799Z,15.40
2017-11-25T22:27:36.138Z,14.80
2017-11-25T22:30:03.733Z,17.87
2017-11-25T22:32:32.064Z,18.23
2017-11-25T22:34:59.665Z,19.17
2017-11-25T22:37:27.238Z,17.03
2017-11-25T22:39:55.917Z,14.07
2017-11-25T22:42:23.489Z,14.57
2017-11-25T22:44:51.825Z,15.40
2017-11-25T22:47:19.468Z,17.57
2017-11-25T22:49:47.053Z,15.10
2017-11-25T22:52:14.626Z,17.60
2017-11-25T22:54:43.142Z,17.67
2017-11-25T22:57:11.477Z,17.33
2017-11-25T22:59:39.365Z,17.20
2017-11-25T23:02:06.938Z,13.73
2017-11-25T23:04:34.501Z,19.10
2017-11-25T23:07:02.865Z,14.07
2017-11-25T23:09:30.429Z,16.10
2017-11-25T23:11:58.017Z,13.73
2017-11-25T23:14:25.585Z,16.67
2017-11-25T23:16:53.209Z,17.50
2017-11-25T23:19:21.544Z,17.03
2017-11-25T23:21:49.117Z,16.55
2017-11-25T23:24:16.708Z,10.87
2017-11-25T23:26:45.914Z,13.18
2017-11-25T23:29:13.481Z,16.57
2017-11-25T23:31:41.810Z,15.70
2017-11-25T23:34:09.406Z,13.17
2017-11-25T23:36:37.766Z,12.97
2017-11-25T23:39:05.342Z,11.47
2017-11-25T23:41:33.113Z,13.32
2017-11-25T23:44:00.689Z,11.38
2017-11-25T23:46:29.020Z,13.90
2017-11-25T23:48:56.613Z,13.95
2017-11-25T23:51:25.732Z,12.67
2017-11-25T23:53:54.065Z,12.50
2017-11-25T23:56:21.629Z,10.30
2017-11-25T23:58:49.231Z,10.70
